Detroit, Michigan
Traffic Map
Current Weather Conditions
Detroit, Michigan
Few Clouds
Few Clouds
75°
Feels Like: 75°
Wind Chill: 75° Ceiling: Unl
Heat Index: 75° Visibility: 12mi
Dew Point: 55° Wind: 7mph
Humidity: 50% Direction: 300° (WNW)
Pressure: 29.93in Gusts: 0mph
Raw Report DataCYQG 200000Z 30006KT 12SM FEW058 24/13 A2993 RMK CF1 CF TR SLP136 DENSITY ALT 1800FT
Traffic Incident Summary
Active as of:
Severity:
Category:
InformationThere was an issue retrieving the traffic information for this location. Please try a different location or try again shortly.
Advertisements